Time;durP1;ratioP1;P1;durP2;ratioP2;P2;SDS_P1;SDS_P2;PMS_P1;PMS_P2;Temp;Humidity;BMP_temperature;BMP_pressure;BME280_temperature;BME280_humidity;BME280_pressure;Samples;Min_cycle;Max_cycle;Signal;HPM_P1;HPM_P2
2021/06/06 00:00:36;;;;;;;14.25;10.49;;;;;;;15.48;84.04;99932.19;1993372;79;20721;-76
2021/06/06 00:03:42;;;;;;;14.94;10.74;;;;;;;15.46;84.21;99935.72;1989933;81;20201;-76
2021/06/06 00:06:46;;;;;;;16.84;10.56;;;;;;;15.45;84.14;99934.84;1993529;81;20226;-76
2021/06/06 00:09:48;;;;;;;16.65;10.11;;;;;;;15.46;84.34;99933.09;1990388;81;20195;-76
2021/06/06 00:12:51;;;;;;;15.69;10.82;;;;;;;15.48;84.54;99933.94;1990063;81;20858;-76
2021/06/06 00:15:54;;;;;;;17.81;11.25;;;;;;;15.49;84.59;99936.53;1990438;78;22078;-76
2021/06/06 00:18:57;;;;;;;16.54;10.77;;;;;;;15.50;84.51;99935.63;1994703;81;20170;-76
2021/06/06 00:22:01;;;;;;;16.23;10.88;;;;;;;15.48;84.36;99937.41;1995013;81;20196;-77
2021/06/06 00:25:07;;;;;;;16.16;10.64;;;;;;;15.51;84.15;99936.50;1994813;81;20228;-76
2021/06/06 00:28:09;;;;;;;14.70;10.71;;;;;;;15.52;84.07;99935.59;1995130;81;20215;-76
2021/06/06 00:31:13;;;;;;;13.46;10.93;;;;;;;15.50;84.27;99940.88;1994254;79;21415;-76
2021/06/06 00:34:16;;;;;;;15.63;10.34;;;;;;;15.50;84.11;99943.50;1989917;81;20201;-76
2021/06/06 00:37:18;;;;;;;18.24;10.59;;;;;;;15.51;83.89;99941.72;1989622;81;20176;-76
2021/06/06 00:40:26;;;;;;;14.27;9.86;;;;;;;15.50;83.92;99940.88;1989923;81;20200;-76
2021/06/06 00:43:29;;;;;;;14.66;10.44;;;;;;;15.51;83.92;99931.25;1989413;81;20175;-76
2021/06/06 00:46:32;;;;;;;14.56;10.63;;;;;;;15.53;83.84;99937.34;1991315;78;22269;-76
2021/06/06 00:49:34;;;;;;;15.30;9.88;;;;;;;15.50;83.84;99940.00;1994777;81;20682;-77
2021/06/06 00:52:39;;;;;;;14.45;10.21;;;;;;;15.48;83.98;99937.41;1994755;81;20214;-76
2021/06/06 00:55:42;;;;;;;16.02;9.77;;;;;;;15.49;84.13;99938.28;1995214;81;20716;-76
2021/06/06 00:58:47;;;;;;;13.82;9.65;;;;;;;15.49;84.39;99947.00;1994866;81;20292;-76
2021/06/06 01:01:50;;;;;;;12.81;9.51;;;;;;;15.47;84.22;99942.69;1991266;79;20179;-76
2021/06/06 01:04:53;;;;;;;14.66;9.48;;;;;;;15.48;84.06;99939.16;1990662;81;21125;-76
2021/06/06 01:07:57;;;;;;;12.45;9.71;;;;;;;15.47;83.81;99940.06;1989834;81;20241;-72
2021/06/06 01:11:10;;;;;;;13.54;9.75;;;;;;;15.47;84.07;99937.44;1989345;81;20211;-72
2021/06/06 01:14:20;;;;;;;12.18;9.05;;;;;;;15.47;83.78;99937.44;1989091;81;20240;-72
2021/06/06 01:17:40;;;;;;;12.41;9.57;;;;;;;15.45;83.73;99934.00;1992644;77;20284;-71
2021/06/06 01:21:28;;;;;;;11.48;9.02;;;;;;;15.43;83.87;99940.06;1994318;81;20646;-72
2021/06/06 01:24:50;;;;;;;13.26;8.79;;;;;;;15.44;83.73;99933.13;1994554;81;20208;-72
2021/06/06 01:28:02;;;;;;;12.14;9.15;;;;;;;15.46;83.64;99935.72;1994717;81;20235;-72
2021/06/06 01:31:06;;;;;;;11.85;9.57;;;;;;;15.44;83.32;99925.28;1992934;78;20252;-72
2021/06/06 01:34:11;;;;;;;12.36;9.76;;;;;;;15.42;83.36;99927.88;1993915;81;20853;-72
2021/06/06 01:37:19;;;;;;;12.06;9.80;;;;;;;15.42;83.37;99927.03;1994444;81;20163;-72
2021/06/06 01:44:42;;;;;;;11.26;9.21;;;;;;;15.41;83.21;99918.31;1995906;81;20301;-72
2021/06/06 01:48:07;;;;;;;14.05;9.10;;;;;;;15.37;83.38;99923.63;1991679;79;20912;-72
2021/06/06 01:51:48;;;;;;;13.70;9.77;;;;;;;15.37;83.66;99919.25;1990549;81;20183;-72
2021/06/06 01:54:52;;;;;;;12.52;9.88;;;;;;;15.37;83.82;99921.00;2091112;70;21038;-72
2021/06/06 01:57:59;;;;;;;15.00;9.84;;;;;;;15.34;83.86;99918.44;2006088;80;20246;-72
2021/06/06 02:01:12;;;;;;;13.65;9.86;;;;;;;15.32;83.63;99910.63;2005191;78;22954;-72
2021/06/06 02:04:16;;;;;;;12.60;9.81;;;;;;;15.31;83.82;99908.88;2008218;80;20783;-72
2021/06/06 02:07:26;;;;;;;13.51;9.61;;;;;;;15.31;84.33;99903.66;2007903;80;20178;-73
2021/06/06 02:10:32;;;;;;;12.84;9.70;;;;;;;15.31;84.12;99897.56;2008502;80;20788;-71
2021/06/06 02:13:54;;;;;;;12.44;9.68;;;;;;;15.27;84.06;99899.38;2008372;80;20210;-72
2021/06/06 02:17:00;;;;;;;11.49;8.98;;;;;;;15.29;84.09;99888.88;2006721;78;20847;-72
2021/06/06 02:20:06;;;;;;;13.13;10.10;;;;;;;15.31;84.15;99897.56;2008370;80;20312;-73
2021/06/06 02:53:11;;;;;;;11.77;9.29;;;;;;;15.24;84.10;99885.44;2001050;81;20283;-72
2021/06/06 02:56:21;;;;;;;13.84;11.38;;;;;;;15.25;84.01;99888.03;2001235;81;20197;-72
2021/06/06 02:59:28;;;;;;;12.54;11.13;;;;;;;15.25;84.13;99881.94;2001307;81;20193;-72
2021/06/06 03:02:40;;;;;;;15.40;11.73;;;;;;;15.23;84.02;99879.34;2002150;78;22440;-72
2021/06/06 03:05:43;;;;;;;14.26;11.56;;;;;;;15.23;83.84;99884.56;2005116;80;20193;-73
2021/06/06 03:08:46;;;;;;;15.89;11.69;;;;;;;15.24;84.07;99881.06;2005779;80;20203;-72
2021/06/06 03:11:52;;;;;;;17.00;12.01;;;;;;;15.23;83.91;99884.56;2005016;80;20293;-72
2021/06/06 03:14:56;;;;;;;14.70;11.91;;;;;;;15.21;83.93;99881.13;2004889;80;21781;-72
2021/06/06 03:18:01;;;;;;;18.29;12.34;;;;;;;15.22;83.97;99882.00;2004101;78;20622;-72
2021/06/06 03:21:22;;;;;;;15.29;11.89;;;;;;;15.24;84.12;99888.06;2004676;80;20181;-73
2021/06/06 03:24:39;;;;;;;16.39;12.30;;;;;;;15.24;84.19;99888.06;2005490;80;20782;-74
2021/06/06 03:27:44;;;;;;;17.70;12.04;;;;;;;15.22;84.15;99890.69;2004800;80;20786;-72
2021/06/06 03:30:50;;;;;;;17.23;12.73;;;;;;;15.23;84.38;99895.03;2003659;79;20233;-72
2021/06/06 03:33:59;;;;;;;15.00;12.01;;;;;;;15.23;84.44;99891.56;2004675;80;20229;-72
2021/06/06 03:37:03;;;;;;;14.45;11.61;;;;;;;15.22;84.41;99884.59;2005246;80;20912;-72
2021/06/06 03:40:08;;;;;;;16.51;11.60;;;;;;;15.22;84.38;99888.09;2005099;80;20176;-72
2021/06/06 03:43:16;;;;;;;15.29;12.63;;;;;;;15.21;84.45;99886.34;2005532;80;20202;-72
2021/06/06 03:46:20;;;;;;;17.06;12.61;;;;;;;15.20;84.56;99887.25;2004301;79;24451;-72
2021/06/06 03:49:24;;;;;;;15.06;11.60;;;;;;;15.21;84.62;99886.34;2005015;80;20341;-72
2021/06/06 03:52:33;;;;;;;16.23;12.52;;;;;;;15.20;84.77;99883.75;2005096;80;20213;-72
2021/06/06 03:55:36;;;;;;;18.08;12.89;;;;;;;15.19;84.89;99882.91;2005558;80;20177;-72
2021/06/06 03:58:41;;;;;;;19.11;13.74;;;;;;;15.22;84.95;99884.59;2005593;80;20292;-71
2021/06/06 04:01:44;;;;;;;17.59;13.95;;;;;;;15.23;85.02;99887.19;2004762;78;20586;-72
2021/06/06 04:04:47;;;;;;;20.56;14.85;;;;;;;15.23;85.04;99889.81;2005142;80;21058;-71
2021/06/06 04:07:49;;;;;;;22.69;14.95;;;;;;;15.25;84.74;99881.94;2008399;80;20258;-73
2021/06/06 04:10:53;;;;;;;19.86;14.73;;;;;;;15.24;84.52;99888.91;2005240;80;20173;-72
2021/06/06 04:13:55;;;;;;;23.17;16.79;;;;;;;15.25;84.99;99888.03;2004694;80;20532;-72
2021/06/06 04:16:58;;;;;;;23.59;17.64;;;;;;;15.27;84.91;99882.81;2003876;78;21938;-72
2021/06/06 04:20:02;;;;;;;24.20;18.14;;;;;;;15.27;84.85;99886.28;2005659;80;21157;-72
2021/06/06 04:23:05;;;;;;;24.33;18.33;;;;;;;15.29;84.89;99886.25;2004741;80;20181;-71
2021/06/06 04:26:08;;;;;;;25.44;17.73;;;;;;;15.30;84.77;99883.63;2004976;80;20238;-72
2021/06/06 04:29:10;;;;;;;29.65;19.69;;;;;;;15.32;84.49;99886.19;2004723;80;20208;-72
2021/06/06 04:32:16;;;;;;;27.19;19.79;;;;;;;15.34;84.27;99881.81;2004405;78;21549;-71
2021/06/06 04:35:18;;;;;;;27.91;20.64;;;;;;;15.34;84.20;99876.56;2005573;80;21294;-72
2021/06/06 04:38:26;;;;;;;30.56;21.48;;;;;;;15.34;84.18;99887.03;2004666;80;20213;-72
2021/06/06 04:41:29;;;;;;;28.57;21.41;;;;;;;15.35;84.30;99886.16;2005112;80;21007;-72
2021/06/06 04:44:32;;;;;;;32.19;21.49;;;;;;;15.35;83.75;99881.78;2004844;80;20217;-73
2021/06/06 04:47:34;;;;;;;30.19;21.41;;;;;;;15.38;83.65;99879.09;2003645;78;20703;-72
2021/06/06 04:50:38;;;;;;;32.15;21.45;;;;;;;15.41;83.76;99881.66;2005250;80;20983;-72
2021/06/06 04:53:41;;;;;;;29.19;21.48;;;;;;;15.43;83.92;99889.50;2005058;80;20193;-71
2021/06/06 04:56:43;;;;;;;30.29;20.60;;;;;;;15.44;84.26;99883.41;1999139;81;20710;-72
2021/06/06 04:59:46;;;;;;;29.39;21.38;;;;;;;15.45;84.13;99886.88;1999746;81;20263;-72
2021/06/06 05:02:49;;;;;;;31.15;22.01;;;;;;;15.45;83.98;99884.25;1998794;79;20737;-72
2021/06/06 05:05:51;;;;;;;30.08;20.96;;;;;;;15.45;83.75;99892.13;2000324;81;20203;-73
2021/06/06 05:08:54;;;;;;;31.52;23.10;;;;;;;15.49;83.66;99889.41;1999381;81;20225;-72
2021/06/06 05:11:57;;;;;;;31.83;21.34;;;;;;;15.49;83.32;99896.41;2000176;81;20193;-72
2021/06/06 05:15:00;;;;;;;35.26;22.41;;;;;;;15.49;83.53;99899.88;1999737;81;20178;-72
2021/06/06 05:18:04;;;;;;;34.94;22.02;;;;;;;15.51;83.07;99899.84;1994833;81;21914;-72
2021/06/06 05:21:07;;;;;;;27.50;20.91;;;;;;;15.52;82.98;99891.97;1994865;81;20988;-72
2021/06/06 05:24:10;;;;;;;30.69;20.05;;;;;;;15.57;83.02;99894.50;1994622;81;20756;-71
2021/06/06 05:27:13;;;;;;;29.89;21.04;;;;;;;15.59;83.06;99892.75;1994970;81;20245;-72
2021/06/06 05:30:26;;;;;;;28.76;20.20;;;;;;;15.62;82.53;99888.38;1994596;81;20191;-72
2021/06/06 05:33:29;;;;;;;28.24;19.83;;;;;;;15.65;82.34;99890.91;1994427;81;20728;-72
2021/06/06 05:36:32;;;;;;;30.35;21.48;;;;;;;15.68;82.04;99890.00;1994495;81;20196;-72
2021/06/06 05:39:35;;;;;;;25.99;20.04;;;;;;;15.73;81.87;99897.78;1994391;81;20785;-73
2021/06/06 05:42:38;;;;;;;25.26;18.91;;;;;;;15.72;81.61;99894.28;1994481;81;20233;-72
2021/06/06 05:45:40;;;;;;;25.86;19.11;;;;;;;15.72;81.99;99896.91;1994498;78;21416;-72
2021/06/06 05:48:43;;;;;;;24.34;18.19;;;;;;;15.75;81.86;99893.38;1998387;81;20548;-72
2021/06/06 05:51:46;;;;;;;27.74;19.38;;;;;;;15.79;82.02;99892.41;1999779;81;20324;-72
2021/06/06 05:54:49;;;;;;;23.70;18.10;;;;;;;15.82;81.59;99888.00;2000976;80;20194;-72
2021/06/06 05:57:51;;;;;;;25.86;18.16;;;;;;;15.88;81.37;99894.88;2004556;80;20289;-72
2021/06/06 06:00:54;;;;;;;23.61;18.23;;;;;;;15.99;81.33;99899.06;2003360;78;20185;-72
2021/06/06 06:03:57;;;;;;;23.51;16.92;;;;;;;16.13;80.93;99890.91;2004834;80;20199;-72
2021/06/06 06:07:00;;;;;;;23.58;18.23;;;;;;;16.24;80.38;99893.34;2004372;80;20703;-72
2021/06/06 06:10:08;;;;;;;27.31;18.36;;;;;;;16.37;79.66;99893.97;2004511;80;20718;-72
2021/06/06 06:13:11;;;;;;;23.09;18.58;;;;;;;16.52;78.80;99893.66;2004493;80;20258;-72
2021/06/06 06:16:19;;;;;;;20.80;17.20;;;;;;;16.64;78.39;99893.38;2003184;78;22043;-72
2021/06/06 06:19:21;;;;;;;24.31;17.52;;;;;;;16.70;77.93;99903.81;2004884;80;20199;-73
2021/06/06 06:22:24;;;;;;;24.69;16.63;;;;;;;16.71;77.79;99907.28;2004717;80;20308;-73
2021/06/06 06:25:27;;;;;;;21.63;18.29;;;;;;;16.70;77.31;99905.56;2004951;80;20181;-73
2021/06/06 06:28:30;;;;;;;23.46;17.88;;;;;;;16.68;77.22;99897.69;2005501;80;20209;-73
2021/06/06 06:31:34;;;;;;;20.42;15.88;;;;;;;16.67;77.45;99900.34;2004041;79;20181;-72
2021/06/06 06:34:36;;;;;;;21.14;16.01;;;;;;;16.67;77.87;99897.72;2005490;80;20425;-72
2021/06/06 06:37:39;;;;;;;20.81;15.84;;;;;;;16.70;78.02;99897.69;2005865;80;20191;-72
2021/06/06 06:40:43;;;;;;;22.76;15.29;;;;;;;16.72;77.71;99896.75;2005152;80;20277;-73
2021/06/06 06:43:45;;;;;;;19.84;15.85;;;;;;;16.72;77.51;99903.78;2005674;80;20282;-73
2021/06/06 06:46:48;;;;;;;17.61;14.51;;;;;;;16.73;77.38;99898.50;2004009;78;21146;-73
2021/06/06 06:49:51;;;;;;;17.40;14.57;;;;;;;16.77;77.39;99908.00;2005247;80;20288;-72
2021/06/06 06:52:56;;;;;;;18.50;14.84;;;;;;;16.80;76.77;99902.69;2005974;80;20177;-73
2021/06/06 06:55:59;;;;;;;16.67;13.71;;;;;;;16.81;75.97;99901.78;2005229;80;20180;-75
2021/06/06 06:59:02;;;;;;;17.63;14.34;;;;;;;16.86;76.45;99897.31;2008174;80;20322;-73
2021/06/06 07:02:05;;;;;;;16.56;14.77;;;;;;;16.89;76.44;99904.28;2004376;78;20385;-73
2021/06/06 07:05:08;;;;;;;17.96;13.61;;;;;;;16.89;76.34;99910.38;2007834;80;20931;-73
2021/06/06 07:08:14;;;;;;;18.17;14.32;;;;;;;16.93;76.49;99911.16;2007390;80;20200;-73
2021/06/06 07:11:20;;;;;;;18.56;14.04;;;;;;;16.91;76.17;99911.22;2007396;80;21272;-73
2021/06/06 07:14:23;;;;;;;18.86;15.35;;;;;;;16.94;75.66;99909.41;2008108;80;20223;-73
2021/06/06 07:17:27;;;;;;;17.26;13.90;;;;;;;16.93;75.76;99908.53;2006152;77;23249;-73
2021/06/06 07:20:34;;;;;;;18.99;14.50;;;;;;;16.92;75.77;99907.69;2007062;80;20197;-73
2021/06/06 07:23:39;;;;;;;15.76;13.55;;;;;;;16.88;75.71;99920.91;2006772;80;20204;-73
2021/06/06 07:26:45;;;;;;;15.31;12.81;;;;;;;16.89;76.18;99915.63;2006173;80;20200;-73
2021/06/06 07:29:50;;;;;;;14.64;12.46;;;;;;;16.96;76.69;99918.97;2007804;80;20207;-73
2021/06/06 07:32:53;;;;;;;15.70;12.93;;;;;;;17.02;76.01;99920.59;2006495;78;20328;-72
2021/06/06 07:35:56;;;;;;;17.06;12.55;;;;;;;17.02;75.48;99924.06;2007665;80;20216;-72
2021/06/06 07:39:02;;;;;;;13.14;11.73;;;;;;;17.07;75.37;99916.97;2007998;80;20239;-73
2021/06/06 07:42:05;;;;;;;13.84;10.79;;;;;;;17.13;75.60;99921.22;2006326;80;20224;-74
2021/06/06 07:45:10;;;;;;;15.15;11.25;;;;;;;17.19;75.30;99926.31;2007024;80;20173;-73
2021/06/06 07:48:13;;;;;;;12.20;10.61;;;;;;;17.24;75.13;99927.09;2007347;78;20607;-73
2021/06/06 07:51:16;;;;;;;13.29;11.54;;;;;;;17.31;74.99;99933.06;2007056;80;20204;-72
2021/06/06 07:54:18;;;;;;;14.36;11.07;;;;;;;17.29;74.37;99929.59;2007162;80;20218;-72
2021/06/06 07:57:21;;;;;;;15.36;11.98;;;;;;;17.31;73.99;99928.66;2003382;80;20177;-73
2021/06/06 08:00:29;;;;;;;12.56;11.10;;;;;;;17.36;73.77;99934.66;2006815;80;20699;-72
2021/06/06 08:03:32;;;;;;;12.51;10.48;;;;;;;17.37;73.28;99927.66;2008828;80;20177;-73
2021/06/06 08:06:35;;;;;;;13.77;10.73;;;;;;;17.47;73.65;99930.03;2006523;80;20638;-72
2021/06/06 08:09:38;;;;;;;12.21;10.18;;;;;;;17.57;73.65;99927.19;2007532;80;20286;-73
2021/06/06 08:12:40;;;;;;;11.43;9.81;;;;;;;17.65;73.05;99922.63;2007019;80;20213;-73
2021/06/06 08:15:44;;;;;;;11.86;10.24;;;;;;;17.72;73.29;99917.19;2006335;78;21885;-72
2021/06/06 08:18:47;;;;;;;10.96;9.38;;;;;;;17.74;72.79;99922.41;2006977;80;20207;-73
2021/06/06 08:21:51;;;;;;;13.18;10.68;;;;;;;17.76;72.63;99926.72;2007415;80;20224;-73
2021/06/06 08:24:53;;;;;;;14.21;10.79;;;;;;;17.74;72.36;99923.25;2006731;80;20192;-72
2021/06/06 08:27:56;;;;;;;14.15;10.14;;;;;;;17.71;71.93;99923.34;2006672;80;20173;-73
2021/06/06 08:31:04;;;;;;;14.05;10.21;;;;;;;17.71;71.39;99915.47;2007003;78;21388;-75
2021/06/06 08:34:09;;;;;;;12.42;10.26;;;;;;;17.72;71.04;99919.81;2007060;80;20234;-74
2021/06/06 08:37:11;;;;;;;13.26;11.61;;;;;;;17.84;71.61;99920.44;2007486;80;20260;-72
2021/06/06 08:40:25;;;;;;;11.46;10.35;;;;;;;17.79;69.90;99918.78;2007121;80;20201;-73
2021/06/06 08:43:50;;;;;;;11.82;9.46;;;;;;;17.78;70.69;99926.72;2007643;80;20987;-73
2021/06/06 08:47:03;;;;;;;12.52;9.56;;;;;;;17.93;71.21;99928.91;2005915;80;22360;-73
2021/06/06 08:50:22;;;;;;;10.74;9.64;;;;;;;18.02;70.48;99930.47;2006869;80;20169;-73
2021/06/06 08:53:35;;;;;;;12.70;8.52;;;;;;;18.14;70.40;99935.41;2007542;80;20169;-73
2021/06/06 08:56:38;;;;;;;11.01;8.61;;;;;;;18.18;69.05;99939.66;2006705;80;20210;-75
2021/06/06 08:59:51;;;;;;;11.24;9.31;;;;;;;18.17;69.59;99930.06;2007604;80;20961;-73
2021/06/06 09:03:00;;;;;;;9.88;8.56;;;;;;;18.15;69.25;99933.63;2005710;78;20574;-75
2021/06/06 09:06:14;;;;;;;12.98;8.26;;;;;;;18.20;69.86;99937.00;2007711;80;20185;-74
2021/06/06 09:09:21;;;;;;;10.55;9.32;;;;;;;18.26;69.75;99945.56;2007281;80;20224;-74
2021/06/06 09:12:25;;;;;;;15.79;10.63;;;;;;;18.25;69.25;99938.59;2006538;80;20807;-75
2021/06/06 09:15:28;;;;;;;11.46;9.48;;;;;;;18.27;68.21;99936.78;2006096;80;20248;-74
2021/06/06 09:18:31;;;;;;;11.39;9.45;;;;;;;18.37;68.81;99935.63;2007507;80;20185;-74
2021/06/06 09:21:34;;;;;;;12.66;9.51;;;;;;;18.50;67.74;99928.28;2007598;80;20634;-74
2021/06/06 09:24:47;;;;;;;11.69;8.93;;;;;;;18.71;67.38;99940.84;2006705;80;20176;-74
2021/06/06 09:28:13;;;;;;;12.52;9.38;;;;;;;18.90;66.82;99940.31;2007235;80;20645;-74
2021/06/06 09:31:15;;;;;;;13.55;9.45;;;;;;;19.06;66.38;99941.59;2006740;78;21556;-73
2021/06/06 09:34:22;;;;;;;11.46;9.48;;;;;;;18.98;65.05;99941.78;2007860;80;20268;-73
2021/06/06 09:37:28;;;;;;;16.20;9.90;;;;;;;19.02;65.58;99937.28;2007632;80;20181;-74
2021/06/06 09:40:34;;;;;;;12.38;9.25;;;;;;;19.04;65.54;99938.13;2006972;80;20194;-73
2021/06/06 09:43:37;;;;;;;12.15;9.93;;;;;;;19.10;65.99;99935.31;2007326;80;20177;-73
2021/06/06 09:47:08;;;;;;;10.44;8.59;;;;;;;19.19;65.66;99939.41;2006330;78;22095;-73
2021/06/06 09:50:19;;;;;;;11.19;8.04;;;;;;;19.23;64.50;99938.44;2007236;80;20747;-73
2021/06/06 09:53:30;;;;;;;9.63;8.04;;;;;;;19.30;64.85;99940.81;2007070;80;20184;-73
2021/06/06 09:56:34;;;;;;;8.15;7.31;;;;;;;19.26;63.81;99935.69;2006972;80;20624;-72
2021/06/06 09:59:37;;;;;;;10.45;7.36;;;;;;;19.25;64.66;99934.84;2002827;80;20242;-72
2021/06/06 10:02:45;;;;;;;7.47;6.64;;;;;;;19.35;65.61;99939.81;2006773;78;20630;-72
2021/06/06 10:05:48;;;;;;;7.39;6.69;;;;;;;19.41;64.92;99942.25;2007555;80;20169;-73
2021/06/06 10:09:05;;;;;;;6.90;6.04;;;;;;;19.49;64.98;99949.00;2007921;80;20208;-73
2021/06/06 10:12:16;;;;;;;8.98;6.80;;;;;;;19.61;65.07;99948.66;2008319;80;20709;-72
2021/06/06 10:15:57;;;;;;;7.10;6.40;;;;;;;19.64;64.47;99944.19;2007277;80;20157;-72
2021/06/06 10:19:07;;;;;;;8.15;6.24;;;;;;;19.71;63.82;99951.81;2008806;80;20273;-73
2021/06/06 10:22:22;;;;;;;10.41;6.30;;;;;;;19.68;64.11;99946.66;2008512;80;20217;-73
2021/06/06 10:25:34;;;;;;;7.09;5.60;;;;;;;19.70;64.16;99941.34;2006354;80;20673;-73
2021/06/06 10:28:52;;;;;;;8.76;6.93;;;;;;;19.78;63.88;99937.56;2006095;80;20969;-73
2021/06/06 10:32:03;;;;;;;7.09;5.78;;;;;;;19.92;63.44;99940.56;2005284;78;22529;-73
2021/06/06 10:35:18;;;;;;;6.51;5.22;;;;;;;20.11;63.21;99937.34;2006093;80;20916;-73
2021/06/06 10:38:21;;;;;;;5.38;4.91;;;;;;;20.31;62.82;99939.28;2006718;80;20173;-74
2021/06/06 10:41:42;;;;;;;6.34;4.57;;;;;;;20.43;61.53;99931.78;2006801;80;20245;-74
2021/06/06 10:45:19;;;;;;;5.63;4.90;;;;;;;20.58;61.56;99935.66;2006515;80;20173;-74
2021/06/06 10:48:25;;;;;;;6.31;4.74;;;;;;;20.64;60.69;99939.84;2001156;79;28813;-72
2021/06/06 10:51:35;;;;;;;6.00;4.22;;;;;;;20.70;60.33;99934.34;2003205;81;20220;-74
2021/06/06 10:54:44;;;;;;;5.10;4.59;;;;;;;20.78;60.57;99935.78;2001961;81;20286;-73
2021/06/06 10:57:48;;;;;;;8.29;4.80;;;;;;;20.87;58.85;99931.94;2000389;81;20267;-73
2021/06/06 11:00:58;;;;;;;4.53;4.13;;;;;;;20.93;58.95;99930.84;2001685;78;49472;-74
2021/06/06 11:04:20;;;;;;;5.78;3.86;;;;;;;20.95;58.08;99927.22;2007421;80;20291;-73
2021/06/06 11:07:44;;;;;;;6.05;3.72;;;;;;;21.02;59.74;99922.59;2006969;80;20201;-73
2021/06/06 11:10:48;;;;;;;4.85;3.51;;;;;;;21.04;57.08;99921.59;2004577;80;21068;-73
2021/06/06 11:14:16;;;;;;;3.55;3.21;;;;;;;21.10;58.25;99912.56;2004870;80;20199;-74
2021/06/06 11:17:32;;;;;;;5.47;3.71;;;;;;;21.23;58.78;99919.09;2005277;78;20243;-73
2021/06/06 11:20:47;;;;;;;4.44;4.03;;;;;;;21.28;59.13;99921.59;2007127;80;20197;-73
2021/06/06 11:23:52;;;;;;;4.64;3.72;;;;;;;21.40;58.53;99918.47;2007573;80;20984;-74
2021/06/06 11:27:22;;;;;;;4.07;3.50;;;;;;;21.47;58.92;99912.00;2004005;80;20254;-74
2021/06/06 11:30:25;;;;;;;5.72;3.38;;;;;;;21.44;56.70;99911.25;2004860;80;23037;-75
2021/06/06 11:33:35;;;;;;;4.09;3.26;;;;;;;21.42;57.58;99908.69;2006334;80;20188;-75
2021/06/06 11:36:41;;;;;;;5.03;3.72;;;;;;;21.44;57.53;99903.34;2008516;80;20195;-75
2021/06/06 11:39:46;;;;;;;4.38;4.01;;;;;;;21.41;58.61;99906.97;2008114;80;20205;-74
2021/06/06 11:42:52;;;;;;;4.32;3.71;;;;;;;21.48;58.40;99899.63;2007107;80;20254;-73
2021/06/06 11:46:13;;;;;;;4.69;3.88;;;;;;;21.51;58.08;99894.22;2006864;78;22880;-73
2021/06/06 11:49:57;;;;;;;3.85;3.44;;;;;;;21.63;56.99;99893.72;2007364;80;20198;-74
2021/06/06 11:53:41;;;;;;;3.25;2.21;;;;;;;21.69;56.57;99894.31;1986751;81;20188;-74
2021/06/06 11:56:45;;;;;;;4.16;2.86;;;;;;;21.97;56.90;99880.78;1972420;81;21395;-74
2021/06/06 11:59:56;;;;;;;3.74;3.04;;;;;;;21.88;54.91;99889.13;1984649;81;20241;-75
2021/06/06 12:03:11;;;;;;;2.92;2.72;;;;;;;21.77;55.55;99877.28;1983671;78;20355;-74
2021/06/06 12:06:20;;;;;;;3.49;3.19;;;;;;;21.73;56.07;99875.72;1985608;81;20756;-73
2021/06/06 12:09:33;;;;;;;4.21;2.83;;;;;;;21.73;57.35;99875.72;1986740;81;20201;-74
2021/06/06 12:12:39;;;;;;;4.82;3.09;;;;;;;21.77;56.58;99869.38;1984488;81;20272;-74
2021/06/06 12:15:42;;;;;;;4.28;2.76;;;;;;;21.76;56.25;99871.16;1985815;78;25159;-75
2021/06/06 12:19:00;;;;;;;3.42;3.14;;;;;;;21.74;57.21;99874.78;1985827;81;20179;-75
2021/06/06 12:22:22;;;;;;;3.68;3.26;;;;;;;21.60;55.91;99867.44;1985736;81;20753;-74
2021/06/06 12:25:32;;;;;;;4.07;3.60;;;;;;;21.48;56.79;99871.44;2010548;80;20207;-74
2021/06/06 12:28:39;;;;;;;4.04;3.63;;;;;;;21.27;56.88;99874.97;2007528;80;20282;-75
2021/06/06 12:31:46;;;;;;;3.80;3.50;;;;;;;21.15;57.87;99872.75;2006784;78;21036;-74
2021/06/06 12:34:49;;;;;;;5.45;3.79;;;;;;;21.04;58.62;99870.56;2007210;80;20214;-74
2021/06/06 12:37:56;;;;;;;4.38;3.35;;;;;;;20.99;59.09;99868.09;2008084;80;20169;-74
2021/06/06 12:41:02;;;;;;;3.91;3.08;;;;;;;21.02;60.03;99870.63;2007775;80;20292;-74
2021/06/06 12:44:07;;;;;;;5.01;3.49;;;;;;;21.03;59.78;99869.72;2007172;80;20201;-74
2021/06/06 12:47:31;;;;;;;4.25;3.11;;;;;;;21.00;59.64;99872.44;2006394;80;20180;-76
2021/06/06 12:50:34;;;;;;;5.89;2.74;;;;;;;20.96;59.76;99872.63;2005517;80;20635;-74
2021/06/06 12:53:36;;;;;;;4.11;3.35;;;;;;;20.95;59.97;99866.50;2007774;80;20857;-74
2021/06/06 12:56:39;;;;;;;4.54;2.80;;;;;;;20.91;60.21;99859.63;2007412;80;20710;-74
2021/06/06 12:59:43;;;;;;;3.38;2.80;;;;;;;20.98;60.69;99863.72;2007220;80;20333;-74
2021/06/06 13:02:48;;;;;;;3.91;2.59;;;;;;;21.08;59.75;99864.25;2006711;78;20577;-74
2021/06/06 13:06:23;;;;;;;3.84;2.67;;;;;;;21.12;59.28;99863.19;2010285;80;20189;-74
2021/06/06 13:09:29;;;;;;;4.63;2.88;;;;;;;21.25;60.61;99871.53;2007627;80;20684;-74
2021/06/06 13:12:40;;;;;;;2.63;2.42;;;;;;;21.35;60.57;99876.34;2006740;80;20161;-74
2021/06/06 13:15:45;;;;;;;3.05;2.76;;;;;;;21.44;59.34;99879.56;2006873;80;21412;-75
2021/06/06 13:19:03;;;;;;;5.44;2.74;;;;;;;21.44;59.02;99874.28;2007177;80;20276;-74
2021/06/06 13:22:22;;;;;;;4.09;3.64;;;;;;;21.25;58.28;99880.31;2005768;80;20173;-74
2021/06/06 13:25:33;;;;;;;4.61;3.29;;;;;;;21.16;59.30;99879.75;2007598;80;20173;-75
2021/06/06 13:28:39;;;;;;;4.53;3.14;;;;;;;21.12;60.08;99882.53;2007422;80;20741;-74
2021/06/06 13:31:56;;;;;;;4.43;3.84;;;;;;;21.05;59.80;99883.72;2006584;78;21824;-74
2021/06/06 13:35:02;;;;;;;3.40;3.10;;;;;;;20.93;59.97;99883.31;2007788;80;21086;-74
2021/06/06 13:38:05;;;;;;;25.26;3.76;;;;;;;20.96;60.63;99877.91;2007431;80;20226;-74
2021/06/06 13:41:09;;;;;;;6.26;2.46;;;;;;;20.97;61.42;99877.00;2005788;80;20216;-75
2021/06/06 13:44:12;;;;;;;2.86;2.66;;;;;;;20.98;60.75;99876.06;2005058;80;20184;-74
2021/06/06 13:47:21;;;;;;;3.13;2.83;;;;;;;21.00;61.00;99880.38;2004529;78;21873;-75
2021/06/06 13:50:27;;;;;;;4.21;2.49;;;;;;;20.98;60.73;99886.63;2006000;80;20673;-75
2021/06/06 13:53:32;;;;;;;4.26;2.71;;;;;;;20.92;60.19;99881.59;2005725;80;20214;-75
2021/06/06 13:56:35;;;;;;;3.00;2.58;;;;;;;20.85;60.01;99886.28;2006275;80;20201;-75
2021/06/06 13:59:38;;;;;;;4.43;2.58;;;;;;;20.77;61.10;99875.97;2005380;80;20283;-74
2021/06/06 14:02:44;;;;;;;2.75;2.35;;;;;;;20.74;60.58;99873.47;2005468;78;21429;-75
2021/06/06 14:05:46;;;;;;;7.06;2.50;;;;;;;20.84;61.29;99870.50;2006985;80;20685;-76
2021/06/06 14:08:49;;;;;;;3.34;1.99;;;;;;;20.98;62.16;99876.94;2007854;80;20177;-75
2021/06/06 14:11:54;;;;;;;3.30;2.41;;;;;;;21.09;62.01;99879.16;2006660;80;20289;-76
2021/06/06 14:14:57;;;;;;;3.85;2.34;;;;;;;21.17;61.58;99870.91;2006261;80;20228;-76
2021/06/06 14:18:00;;;;;;;3.30;1.86;;;;;;;21.09;60.01;99872.09;2006661;79;22735;-76
2021/06/06 14:21:04;;;;;;;3.00;2.09;;;;;;;21.04;61.18;99876.72;2006751;80;20535;-76
2021/06/06 14:24:11;;;;;;;2.50;2.30;;;;;;;21.01;62.01;99875.97;2007299;80;20239;-76
2021/06/06 14:27:13;;;;;;;3.36;2.29;;;;;;;20.83;60.22;99877.56;2007525;80;20660;-75
2021/06/06 14:30:18;;;;;;;3.88;2.36;;;;;;;20.86;61.78;99884.50;2007739;80;20190;-77
2021/06/06 14:33:24;;;;;;;3.03;2.76;;;;;;;20.88;60.59;99878.22;2009094;80;20667;-78
2021/06/06 14:36:29;;;;;;;2.80;2.53;;;;;;;20.86;59.67;99877.44;2008195;80;20180;-84
2021/06/06 14:39:32;;;;;;;2.45;2.35;;;;;;;20.97;59.65;99879.63;2008917;80;20253;-77
2021/06/06 14:42:36;;;;;;;3.06;2.85;;;;;;;21.01;58.96;99882.13;2008594;80;20225;-76
2021/06/06 14:45:42;;;;;;;3.26;2.96;;;;;;;21.13;58.98;99888.66;2004157;78;20570;-76
2021/06/06 14:48:44;;;;;;;4.49;2.65;;;;;;;21.17;59.01;99877.06;2005913;80;20181;-76
2021/06/06 14:51:47;;;;;;;4.35;3.03;;;;;;;21.21;58.71;99872.53;2007130;80;20181;-76
2021/06/06 14:54:50;;;;;;;3.34;3.04;;;;;;;21.26;59.23;99874.09;2008042;80;20222;-77
2021/06/06 14:57:52;;;;;;;7.47;2.75;;;;;;;21.33;58.22;99874.69;2005274;80;20177;-76
2021/06/06 15:00:57;;;;;;;3.09;2.89;;;;;;;21.33;58.34;99872.91;2004980;78;21861;-76
2021/06/06 15:04:00;;;;;;;3.19;2.58;;;;;;;21.36;58.48;99871.94;2008513;80;21008;-77